sensor_id;sensor_type;location;lat;lon;timestamp;P1;durP1;ratioP1;P2;durP2;ratioP2
5734;SDS011;2892;47.592;7.688;2024-01-15T00:01:29;14.60;;;7.23;;
5734;SDS011;2892;47.592;7.688;2024-01-15T00:03:55;17.03;;;7.47;;
5734;SDS011;2892;47.592;7.688;2024-01-15T00:06:20;19.67;;;9.13;;
5734;SDS011;2892;47.592;7.688;2024-01-15T00:08:46;23.53;;;8.57;;
5734;SDS011;2892;47.592;7.688;2024-01-15T00:11:11;16.83;;;8.63;;
5734;SDS011;2892;47.592;7.688;2024-01-15T00:13:37;14.63;;;7.60;;
5734;SDS011;2892;47.592;7.688;2024-01-15T00:16:03;17.90;;;8.67;;
5734;SDS011;2892;47.592;7.688;2024-01-15T00:18:29;22.87;;;9.70;;
5734;SDS011;2892;47.592;7.688;2024-01-15T00:20:55;16.03;;;8.30;;
5734;SDS011;2892;47.592;7.688;2024-01-15T00:23:20;17.73;;;7.73;;
5734;SDS011;2892;47.592;7.688;2024-01-15T00:25:46;29.07;;;9.37;;
5734;SDS011;2892;47.592;7.688;2024-01-15T00:28:11;25.23;;;9.80;;
5734;SDS011;2892;47.592;7.688;2024-01-15T00:30:37;26.10;;;9.50;;
5734;SDS011;2892;47.592;7.688;2024-01-15T00:33:02;29.07;;;10.87;;
5734;SDS011;2892;47.592;7.688;2024-01-15T00:35:28;36.47;;;12.43;;
5734;SDS011;2892;47.592;7.688;2024-01-15T00:37:53;25.70;;;11.50;;
5734;SDS011;2892;47.592;7.688;2024-01-15T00:40:19;26.20;;;13.07;;
5734;SDS011;2892;47.592;7.688;2024-01-15T00:42:44;36.57;;;13.10;;
5734;SDS011;2892;47.592;7.688;2024-01-15T00:45:10;34.53;;;14.40;;
5734;SDS011;2892;47.592;7.688;2024-01-15T00:47:35;46.37;;;13.70;;
5734;SDS011;2892;47.592;7.688;2024-01-15T00:50:01;32.30;;;12.17;;
5734;SDS011;2892;47.592;7.688;2024-01-15T00:52:26;34.23;;;13.47;;
5734;SDS011;2892;47.592;7.688;2024-01-15T00:54:52;25.10;;;11.43;;
5734;SDS011;2892;47.592;7.688;2024-01-15T00:57:17;34.43;;;11.80;;
5734;SDS011;2892;47.592;7.688;2024-01-15T00:59:43;26.27;;;11.20;;
5734;SDS011;2892;47.592;7.688;2024-01-15T01:02:08;22.90;;;10.10;;
5734;SDS011;2892;47.592;7.688;2024-01-15T01:04:34;26.10;;;11.20;;
5734;SDS011;2892;47.592;7.688;2024-01-15T01:06:59;20.00;;;9.60;;
5734;SDS011;2892;47.592;7.688;2024-01-15T01:09:25;39.77;;;12.50;;
5734;SDS011;2892;47.592;7.688;2024-01-15T01:11:50;24.53;;;10.73;;
5734;SDS011;2892;47.592;7.688;2024-01-15T01:14:16;23.43;;;10.33;;
5734;SDS011;2892;47.592;7.688;2024-01-15T01:16:41;28.37;;;11.47;;
5734;SDS011;2892;47.592;7.688;2024-01-15T01:19:07;33.80;;;12.73;;
5734;SDS011;2892;47.592;7.688;2024-01-15T01:21:33;22.13;;;10.53;;
5734;SDS011;2892;47.592;7.688;2024-01-15T01:23:58;17.63;;;9.60;;
5734;SDS011;2892;47.592;7.688;2024-01-15T01:26:24;26.83;;;9.20;;
5734;SDS011;2892;47.592;7.688;2024-01-15T01:28:49;36.17;;;14.00;;
5734;SDS011;2892;47.592;7.688;2024-01-15T01:31:15;34.43;;;12.07;;
5734;SDS011;2892;47.592;7.688;2024-01-15T01:33:40;24.30;;;11.40;;
5734;SDS011;2892;47.592;7.688;2024-01-15T01:36:08;26.60;;;11.33;;
5734;SDS011;2892;47.592;7.688;2024-01-15T01:38:35;33.83;;;11.50;;
5734;SDS011;2892;47.592;7.688;2024-01-15T01:41:01;30.67;;;11.50;;
5734;SDS011;2892;47.592;7.688;2024-01-15T01:43:27;29.53;;;12.33;;
5734;SDS011;2892;47.592;7.688;2024-01-15T01:45:52;27.90;;;11.60;;
5734;SDS011;2892;47.592;7.688;2024-01-15T01:48:21;33.83;;;11.57;;
5734;SDS011;2892;47.592;7.688;2024-01-15T01:50:48;30.20;;;13.33;;
5734;SDS011;2892;47.592;7.688;2024-01-15T01:53:14;34.93;;;13.93;;
5734;SDS011;2892;47.592;7.688;2024-01-15T01:55:39;40.60;;;12.80;;
5734;SDS011;2892;47.592;7.688;2024-01-15T01:58:05;31.33;;;13.00;;
5734;SDS011;2892;47.592;7.688;2024-01-15T02:00:31;30.77;;;12.23;;
5734;SDS011;2892;47.592;7.688;2024-01-15T02:02:58;36.83;;;13.83;;
5734;SDS011;2892;47.592;7.688;2024-01-15T02:05:24;38.87;;;14.00;;
5734;SDS011;2892;47.592;7.688;2024-01-15T02:07:51;39.27;;;13.70;;
5734;SDS011;2892;47.592;7.688;2024-01-15T02:10:17;27.77;;;11.97;;
5734;SDS011;2892;47.592;7.688;2024-01-15T02:12:42;27.83;;;12.40;;
5734;SDS011;2892;47.592;7.688;2024-01-15T02:15:08;37.53;;;13.47;;
5734;SDS011;2892;47.592;7.688;2024-01-15T02:17:34;27.07;;;11.93;;
5734;SDS011;2892;47.592;7.688;2024-01-15T02:19:59;39.27;;;14.60;;
5734;SDS011;2892;47.592;7.688;2024-01-15T02:22:25;27.43;;;12.50;;
5734;SDS011;2892;47.592;7.688;2024-01-15T02:24:50;32.63;;;10.80;;
5734;SDS011;2892;47.592;7.688;2024-01-15T02:27:16;34.23;;;14.43;;
5734;SDS011;2892;47.592;7.688;2024-01-15T02:29:42;38.87;;;14.40;;
5734;SDS011;2892;47.592;7.688;2024-01-15T02:32:08;26.80;;;11.53;;
5734;SDS011;2892;47.592;7.688;2024-01-15T02:34:34;32.63;;;13.00;;
5734;SDS011;2892;47.592;7.688;2024-01-15T02:36:59;28.03;;;13.10;;
5734;SDS011;2892;47.592;7.688;2024-01-15T02:39:25;29.13;;;12.47;;
5734;SDS011;2892;47.592;7.688;2024-01-15T02:41:51;40.33;;;14.23;;
5734;SDS011;2892;47.592;7.688;2024-01-15T02:44:16;42.53;;;13.70;;
5734;SDS011;2892;47.592;7.688;2024-01-15T02:46:41;29.67;;;11.40;;
5734;SDS011;2892;47.592;7.688;2024-01-15T02:49:07;39.77;;;14.87;;
5734;SDS011;2892;47.592;7.688;2024-01-15T02:51:32;37.93;;;13.67;;
5734;SDS011;2892;47.592;7.688;2024-01-15T02:53:58;32.17;;;13.50;;
5734;SDS011;2892;47.592;7.688;2024-01-15T02:56:23;32.30;;;13.40;;
5734;SDS011;2892;47.592;7.688;2024-01-15T02:58:49;30.10;;;13.67;;
5734;SDS011;2892;47.592;7.688;2024-01-15T03:01:14;37.10;;;12.47;;
5734;SDS011;2892;47.592;7.688;2024-01-15T03:03:43;29.80;;;12.63;;
5734;SDS011;2892;47.592;7.688;2024-01-15T03:06:08;36.37;;;11.97;;
5734;SDS011;2892;47.592;7.688;2024-01-15T03:08:34;28.97;;;11.30;;
5734;SDS011;2892;47.592;7.688;2024-01-15T03:11:00;30.40;;;12.50;;
5734;SDS011;2892;47.592;7.688;2024-01-15T03:13:25;31.93;;;11.60;;
5734;SDS011;2892;47.592;7.688;2024-01-15T03:15:51;31.43;;;12.60;;
5734;SDS011;2892;47.592;7.688;2024-01-15T03:18:16;35.37;;;11.87;;
5734;SDS011;2892;47.592;7.688;2024-01-15T03:20:42;29.93;;;12.07;;
5734;SDS011;2892;47.592;7.688;2024-01-15T03:23:07;27.20;;;12.80;;
5734;SDS011;2892;47.592;7.688;2024-01-15T03:25:33;31.97;;;11.17;;
5734;SDS011;2892;47.592;7.688;2024-01-15T03:27:58;27.60;;;12.07;;
5734;SDS011;2892;47.592;7.688;2024-01-15T03:30:24;43.77;;;13.77;;
5734;SDS011;2892;47.592;7.688;2024-01-15T03:32:49;32.63;;;13.40;;
5734;SDS011;2892;47.592;7.688;2024-01-15T03:35:15;40.60;;;14.03;;
5734;SDS011;2892;47.592;7.688;2024-01-15T03:37:40;37.67;;;13.43;;
5734;SDS011;2892;47.592;7.688;2024-01-15T03:40:06;27.33;;;11.13;;
5734;SDS011;2892;47.592;7.688;2024-01-15T03:42:32;31.90;;;12.07;;
5734;SDS011;2892;47.592;7.688;2024-01-15T03:44:57;31.23;;;14.40;;
5734;SDS011;2892;47.592;7.688;2024-01-15T03:47:23;43.27;;;13.40;;
5734;SDS011;2892;47.592;7.688;2024-01-15T03:49:48;41.77;;;12.90;;
5734;SDS011;2892;47.592;7.688;2024-01-15T03:52:14;37.93;;;12.57;;
5734;SDS011;2892;47.592;7.688;2024-01-15T03:54:39;32.97;;;11.47;;
5734;SDS011;2892;47.592;7.688;2024-01-15T03:57:05;31.90;;;12.40;;
5734;SDS011;2892;47.592;7.688;2024-01-15T03:59:30;30.50;;;11.80;;
5734;SDS011;2892;47.592;7.688;2024-01-15T04:01:56;36.63;;;12.27;;
5734;SDS011;2892;47.592;7.688;2024-01-15T04:04:21;36.40;;;13.10;;
5734;SDS011;2892;47.592;7.688;2024-01-15T04:06:47;42.50;;;13.23;;
5734;SDS011;2892;47.592;7.688;2024-01-15T04:09:12;22.23;;;11.00;;
5734;SDS011;2892;47.592;7.688;2024-01-15T04:11:38;35.50;;;12.23;;
5734;SDS011;2892;47.592;7.688;2024-01-15T04:14:03;33.03;;;12.50;;
5734;SDS011;2892;47.592;7.688;2024-01-15T04:16:29;33.60;;;11.67;;
5734;SDS011;2892;47.592;7.688;2024-01-15T04:18:54;42.43;;;13.00;;
5734;SDS011;2892;47.592;7.688;2024-01-15T04:21:20;26.87;;;12.80;;
5734;SDS011;2892;47.592;7.688;2024-01-15T04:23:45;37.87;;;13.10;;
5734;SDS011;2892;47.592;7.688;2024-01-15T04:26:11;18.67;;;9.43;;
5734;SDS011;2892;47.592;7.688;2024-01-15T04:28:36;33.57;;;11.73;;
5734;SDS011;2892;47.592;7.688;2024-01-15T04:31:02;45.90;;;16.40;;
5734;SDS011;2892;47.592;7.688;2024-01-15T04:33:27;38.13;;;14.90;;
5734;SDS011;2892;47.592;7.688;2024-01-15T04:35:53;38.13;;;15.70;;
5734;SDS011;2892;47.592;7.688;2024-01-15T04:38:18;43.27;;;18.00;;
5734;SDS011;2892;47.592;7.688;2024-01-15T04:40:44;42.63;;;17.40;;
5734;SDS011;2892;47.592;7.688;2024-01-15T04:43:09;41.30;;;15.40;;
5734;SDS011;2892;47.592;7.688;2024-01-15T04:45:35;32.43;;;14.03;;
5734;SDS011;2892;47.592;7.688;2024-01-15T04:48:00;50.03;;;17.90;;
5734;SDS011;2892;47.592;7.688;2024-01-15T04:50:26;37.67;;;16.20;;
5734;SDS011;2892;47.592;7.688;2024-01-15T04:52:52;32.53;;;14.00;;
5734;SDS011;2892;47.592;7.688;2024-01-15T04:55:17;28.40;;;15.60;;
5734;SDS011;2892;47.592;7.688;2024-01-15T04:57:43;33.97;;;15.03;;
5734;SDS011;2892;47.592;7.688;2024-01-15T05:00:08;39.27;;;16.10;;
5734;SDS011;2892;47.592;7.688;2024-01-15T05:02:34;35.57;;;14.57;;
5734;SDS011;2892;47.592;7.688;2024-01-15T05:05:00;32.63;;;13.23;;
5734;SDS011;2892;47.592;7.688;2024-01-15T05:07:25;38.50;;;14.43;;
5734;SDS011;2892;47.592;7.688;2024-01-15T05:09:51;40.37;;;18.03;;
5734;SDS011;2892;47.592;7.688;2024-01-15T05:12:16;39.43;;;16.00;;
5734;SDS011;2892;47.592;7.688;2024-01-15T05:14:42;29.57;;;14.17;;
5734;SDS011;2892;47.592;7.688;2024-01-15T05:17:07;39.67;;;16.77;;
5734;SDS011;2892;47.592;7.688;2024-01-15T05:19:33;46.03;;;15.00;;
5734;SDS011;2892;47.592;7.688;2024-01-15T05:21:58;38.67;;;14.93;;
5734;SDS011;2892;47.592;7.688;2024-01-15T05:24:24;39.20;;;17.00;;
5734;SDS011;2892;47.592;7.688;2024-01-15T05:26:49;35.47;;;15.00;;
5734;SDS011;2892;47.592;7.688;2024-01-15T05:29:15;41.20;;;16.07;;
5734;SDS011;2892;47.592;7.688;2024-01-15T05:31:40;28.90;;;14.53;;
5734;SDS011;2892;47.592;7.688;2024-01-15T05:34:06;33.80;;;13.87;;
5734;SDS011;2892;47.592;7.688;2024-01-15T05:36:31;33.97;;;13.93;;
5734;SDS011;2892;47.592;7.688;2024-01-15T05:38:57;28.93;;;12.53;;
5734;SDS011;2892;47.592;7.688;2024-01-15T05:41:22;28.60;;;11.87;;
5734;SDS011;2892;47.592;7.688;2024-01-15T05:43:48;26.03;;;12.03;;
5734;SDS011;2892;47.592;7.688;2024-01-15T05:46:13;23.63;;;12.00;;
5734;SDS011;2892;47.592;7.688;2024-01-15T05:48:39;29.30;;;13.80;;
5734;SDS011;2892;47.592;7.688;2024-01-15T05:51:04;30.53;;;13.33;;
5734;SDS011;2892;47.592;7.688;2024-01-15T05:53:30;29.47;;;12.30;;
5734;SDS011;2892;47.592;7.688;2024-01-15T05:55:55;30.03;;;13.10;;
5734;SDS011;2892;47.592;7.688;2024-01-15T05:58:21;20.30;;;10.87;;
5734;SDS011;2892;47.592;7.688;2024-01-15T06:00:46;36.87;;;13.57;;
5734;SDS011;2892;47.592;7.688;2024-01-15T06:03:12;25.00;;;10.40;;
5734;SDS011;2892;47.592;7.688;2024-01-15T06:05:37;22.03;;;10.43;;
5734;SDS011;2892;47.592;7.688;2024-01-15T06:08:03;23.70;;;11.60;;
5734;SDS011;2892;47.592;7.688;2024-01-15T06:10:28;28.00;;;11.37;;
5734;SDS011;2892;47.592;7.688;2024-01-15T06:12:54;22.37;;;11.20;;
5734;SDS011;2892;47.592;7.688;2024-01-15T06:15:19;29.20;;;11.50;;
5734;SDS011;2892;47.592;7.688;2024-01-15T06:17:45;30.57;;;12.50;;
5734;SDS011;2892;47.592;7.688;2024-01-15T06:20:10;21.57;;;9.93;;
5734;SDS011;2892;47.592;7.688;2024-01-15T06:22:37;28.20;;;11.70;;
5734;SDS011;2892;47.592;7.688;2024-01-15T06:25:03;36.17;;;10.10;;
5734;SDS011;2892;47.592;7.688;2024-01-15T06:27:29;21.77;;;9.70;;
5734;SDS011;2892;47.592;7.688;2024-01-15T06:29:54;23.07;;;9.90;;
5734;SDS011;2892;47.592;7.688;2024-01-15T06:32:20;24.93;;;10.63;;
5734;SDS011;2892;47.592;7.688;2024-01-15T06:34:45;18.30;;;7.50;;
5734;SDS011;2892;47.592;7.688;2024-01-15T06:37:11;17.80;;;8.30;;
5734;SDS011;2892;47.592;7.688;2024-01-15T06:39:36;16.80;;;7.40;;
5734;SDS011;2892;47.592;7.688;2024-01-15T06:42:02;18.93;;;7.73;;
5734;SDS011;2892;47.592;7.688;2024-01-15T06:44:27;18.50;;;8.00;;
5734;SDS011;2892;47.592;7.688;2024-01-15T06:46:53;13.67;;;6.47;;
5734;SDS011;2892;47.592;7.688;2024-01-15T06:49:18;15.53;;;6.70;;
5734;SDS011;2892;47.592;7.688;2024-01-15T06:51:44;11.37;;;5.43;;
5734;SDS011;2892;47.592;7.688;2024-01-15T06:54:09;18.50;;;7.67;;
5734;SDS011;2892;47.592;7.688;2024-01-15T06:56:35;17.57;;;7.27;;
5734;SDS011;2892;47.592;7.688;2024-01-15T06:59:00;16.43;;;6.53;;
5734;SDS011;2892;47.592;7.688;2024-01-15T07:01:26;15.30;;;7.10;;
5734;SDS011;2892;47.592;7.688;2024-01-15T07:03:51;34.47;;;7.67;;
5734;SDS011;2892;47.592;7.688;2024-01-15T07:06:16;16.90;;;7.60;;
5734;SDS011;2892;47.592;7.688;2024-01-15T07:08:42;14.13;;;7.33;;
5734;SDS011;2892;47.592;7.688;2024-01-15T07:11:08;17.47;;;7.30;;
5734;SDS011;2892;47.592;7.688;2024-01-15T07:13:33;17.07;;;7.77;;
5734;SDS011;2892;47.592;7.688;2024-01-15T07:15:59;17.87;;;7.03;;
5734;SDS011;2892;47.592;7.688;2024-01-15T07:18:24;16.90;;;6.33;;
5734;SDS011;2892;47.592;7.688;2024-01-15T07:20:50;17.10;;;7.63;;
5734;SDS011;2892;47.592;7.688;2024-01-15T07:23:16;14.30;;;7.40;;
5734;SDS011;2892;47.592;7.688;2024-01-15T07:25:41;13.87;;;7.07;;
5734;SDS011;2892;47.592;7.688;2024-01-15T07:28:07;21.20;;;8.90;;
5734;SDS011;2892;47.592;7.688;2024-01-15T07:30:32;18.67;;;7.73;;
5734;SDS011;2892;47.592;7.688;2024-01-15T07:32:58;17.53;;;7.37;;
5734;SDS011;2892;47.592;7.688;2024-01-15T07:35:23;18.97;;;8.60;;
5734;SDS011;2892;47.592;7.688;2024-01-15T07:37:49;18.07;;;8.03;;
5734;SDS011;2892;47.592;7.688;2024-01-15T07:40:14;25.23;;;8.17;;
5734;SDS011;2892;47.592;7.688;2024-01-15T07:42:40;17.03;;;8.70;;
5734;SDS011;2892;47.592;7.688;2024-01-15T07:45:05;24.03;;;9.80;;
5734;SDS011;2892;47.592;7.688;2024-01-15T07:47:31;19.20;;;8.63;;
5734;SDS011;2892;47.592;7.688;2024-01-15T07:49:56;13.57;;;7.43;;
5734;SDS011;2892;47.592;7.688;2024-01-15T07:52:22;23.83;;;10.03;;
5734;SDS011;2892;47.592;7.688;2024-01-15T07:54:47;25.97;;;9.77;;
5734;SDS011;2892;47.592;7.688;2024-01-15T07:57:13;31.33;;;9.30;;
5734;SDS011;2892;47.592;7.688;2024-01-15T07:59:38;22.20;;;10.33;;
5734;SDS011;2892;47.592;7.688;2024-01-15T08:02:04;17.70;;;8.23;;
5734;SDS011;2892;47.592;7.688;2024-01-15T08:04:29;15.33;;;7.77;;
5734;SDS011;2892;47.592;7.688;2024-01-15T08:06:55;15.50;;;9.00;;
5734;SDS011;2892;47.592;7.688;2024-01-15T08:09:20;18.73;;;9.10;;
5734;SDS011;2892;47.592;7.688;2024-01-15T08:11:46;16.50;;;7.00;;
5734;SDS011;2892;47.592;7.688;2024-01-15T08:14:11;22.63;;;9.50;;
5734;SDS011;2892;47.592;7.688;2024-01-15T08:16:37;18.83;;;8.23;;
5734;SDS011;2892;47.592;7.688;2024-01-15T08:19:03;13.50;;;7.27;;
5734;SDS011;2892;47.592;7.688;2024-01-15T08:21:28;15.67;;;8.03;;
5734;SDS011;2892;47.592;7.688;2024-01-15T08:23:54;22.57;;;9.43;;
5734;SDS011;2892;47.592;7.688;2024-01-15T08:26:19;19.30;;;8.50;;
5734;SDS011;2892;47.592;7.688;2024-01-15T08:28:45;18.70;;;8.33;;
5734;SDS011;2892;47.592;7.688;2024-01-15T08:31:10;14.70;;;7.90;;
5734;SDS011;2892;47.592;7.688;2024-01-15T08:33:37;12.70;;;6.47;;
5734;SDS011;2892;47.592;7.688;2024-01-15T08:36:03;14.10;;;6.83;;
5734;SDS011;2892;47.592;7.688;2024-01-15T08:38:28;17.77;;;6.80;;
5734;SDS011;2892;47.592;7.688;2024-01-15T08:40:54;10.00;;;5.53;;
5734;SDS011;2892;47.592;7.688;2024-01-15T08:43:19;11.60;;;6.07;;
5734;SDS011;2892;47.592;7.688;2024-01-15T08:45:45;16.77;;;5.90;;
5734;SDS011;2892;47.592;7.688;2024-01-15T08:48:10;18.30;;;7.70;;
5734;SDS011;2892;47.592;7.688;2024-01-15T08:50:36;13.30;;;6.63;;
5734;SDS011;2892;47.592;7.688;2024-01-15T08:53:01;21.37;;;7.50;;
5734;SDS011;2892;47.592;7.688;2024-01-15T08:55:27;11.07;;;6.50;;
5734;SDS011;2892;47.592;7.688;2024-01-15T08:57:52;16.97;;;7.00;;
5734;SDS011;2892;47.592;7.688;2024-01-15T09:00:18;13.30;;;6.50;;
5734;SDS011;2892;47.592;7.688;2024-01-15T09:02:43;16.20;;;7.20;;
5734;SDS011;2892;47.592;7.688;2024-01-15T09:05:09;14.20;;;8.23;;
5734;SDS011;2892;47.592;7.688;2024-01-15T09:07:34;18.30;;;8.50;;
5734;SDS011;2892;47.592;7.688;2024-01-15T09:10:00;11.00;;;5.87;;
5734;SDS011;2892;47.592;7.688;2024-01-15T09:12:25;15.70;;;6.83;;
5734;SDS011;2892;47.592;7.688;2024-01-15T09:14:51;15.47;;;7.03;;
5734;SDS011;2892;47.592;7.688;2024-01-15T09:17:17;16.43;;;6.87;;
5734;SDS011;2892;47.592;7.688;2024-01-15T09:19:42;18.03;;;7.23;;
5734;SDS011;2892;47.592;7.688;2024-01-15T09:22:08;14.30;;;6.47;;
5734;SDS011;2892;47.592;7.688;2024-01-15T09:24:33;17.30;;;6.63;;
5734;SDS011;2892;47.592;7.688;2024-01-15T09:26:59;16.23;;;7.90;;
5734;SDS011;2892;47.592;7.688;2024-01-15T09:29:25;11.70;;;6.03;;
5734;SDS011;2892;47.592;7.688;2024-01-15T09:31:50;14.67;;;7.03;;
5734;SDS011;2892;47.592;7.688;2024-01-15T09:34:17;9.87;;;6.30;;
5734;SDS011;2892;47.592;7.688;2024-01-15T09:36:43;11.60;;;6.03;;
5734;SDS011;2892;47.592;7.688;2024-01-15T09:39:08;11.00;;;5.67;;
5734;SDS011;2892;47.592;7.688;2024-01-15T09:41:35;13.67;;;7.23;;
5734;SDS011;2892;47.592;7.688;2024-01-15T09:44:02;11.40;;;4.70;;
5734;SDS011;2892;47.592;7.688;2024-01-15T09:46:28;9.70;;;4.60;;
5734;SDS011;2892;47.592;7.688;2024-01-15T09:48:55;12.93;;;5.57;;
5734;SDS011;2892;47.592;7.688;2024-01-15T09:51:20;9.50;;;5.23;;
5734;SDS011;2892;47.592;7.688;2024-01-15T09:53:46;8.57;;;4.70;;
5734;SDS011;2892;47.592;7.688;2024-01-15T09:56:13;11.80;;;5.10;;
5734;SDS011;2892;47.592;7.688;2024-01-15T09:58:39;9.37;;;5.37;;
5734;SDS011;2892;47.592;7.688;2024-01-15T10:01:05;8.63;;;4.50;;
5734;SDS011;2892;47.592;7.688;2024-01-15T10:03:31;10.13;;;4.83;;
5734;SDS011;2892;47.592;7.688;2024-01-15T10:05:59;9.20;;;4.97;;
5734;SDS011;2892;47.592;7.688;2024-01-15T10:08:24;10.67;;;4.60;;
5734;SDS011;2892;47.592;7.688;2024-01-15T10:10:50;14.90;;;5.13;;
5734;SDS011;2892;47.592;7.688;2024-01-15T10:13:16;11.83;;;5.23;;
5734;SDS011;2892;47.592;7.688;2024-01-15T10:15:44;7.90;;;5.10;;
5734;SDS011;2892;47.592;7.688;2024-01-15T10:18:11;13.27;;;5.47;;
5734;SDS011;2892;47.592;7.688;2024-01-15T10:20:36;9.70;;;5.20;;
5734;SDS011;2892;47.592;7.688;2024-01-15T10:23:01;13.97;;;6.43;;
5734;SDS011;2892;47.592;7.688;2024-01-15T10:25:29;17.13;;;5.80;;
5734;SDS011;2892;47.592;7.688;2024-01-15T10:28:02;12.83;;;4.87;;
5734;SDS011;2892;47.592;7.688;2024-01-15T10:30:29;16.80;;;6.20;;
5734;SDS011;2892;47.592;7.688;2024-01-15T10:32:58;11.10;;;6.27;;
5734;SDS011;2892;47.592;7.688;2024-01-15T10:35:33;9.50;;;4.90;;
5734;SDS011;2892;47.592;7.688;2024-01-15T10:37:59;11.37;;;6.13;;
5734;SDS011;2892;47.592;7.688;2024-01-15T10:40:25;15.63;;;7.40;;
5734;SDS011;2892;47.592;7.688;2024-01-15T10:42:51;16.70;;;6.87;;
5734;SDS011;2892;47.592;7.688;2024-01-15T10:45:17;21.30;;;8.20;;
5734;SDS011;2892;47.592;7.688;2024-01-15T10:47:43;12.97;;;6.70;;
5734;SDS011;2892;47.592;7.688;2024-01-15T10:50:09;17.87;;;6.57;;
5734;SDS011;2892;47.592;7.688;2024-01-15T10:52:35;16.37;;;7.60;;
5734;SDS011;2892;47.592;7.688;2024-01-15T10:55:02;12.90;;;7.03;;
5734;SDS011;2892;47.592;7.688;2024-01-15T10:57:28;19.63;;;6.57;;
5734;SDS011;2892;47.592;7.688;2024-01-15T10:59:54;21.13;;;7.97;;
5734;SDS011;2892;47.592;7.688;2024-01-15T11:02:20;17.17;;;8.20;;
5734;SDS011;2892;47.592;7.688;2024-01-15T11:04:46;20.50;;;8.90;;
5734;SDS011;2892;47.592;7.688;2024-01-15T11:07:12;15.07;;;8.60;;
5734;SDS011;2892;47.592;7.688;2024-01-15T11:09:38;21.27;;;8.97;;
5734;SDS011;2892;47.592;7.688;2024-01-15T11:14:51;26.90;;;9.77;;
5734;SDS011;2892;47.592;7.688;2024-01-15T11:17:17;22.60;;;8.90;;
5734;SDS011;2892;47.592;7.688;2024-01-15T11:19:44;22.50;;;8.83;;
5734;SDS011;2892;47.592;7.688;2024-01-15T11:22:47;27.40;;;10.33;;
5734;SDS011;2892;47.592;7.688;2024-01-15T11:24:57;26.43;;;9.97;;
5734;SDS011;2892;47.592;7.688;2024-01-15T11:27:48;17.30;;;8.90;;
5734;SDS011;2892;47.592;7.688;2024-01-15T11:30:13;26.27;;;9.73;;
5734;SDS011;2892;47.592;7.688;2024-01-15T11:32:39;26.83;;;9.97;;
5734;SDS011;2892;47.592;7.688;2024-01-15T11:35:05;18.33;;;9.43;;
5734;SDS011;2892;47.592;7.688;2024-01-15T11:37:56;23.23;;;10.00;;
5734;SDS011;2892;47.592;7.688;2024-01-15T11:40:18;25.00;;;11.00;;
5734;SDS011;2892;47.592;7.688;2024-01-15T11:42:45;25.30;;;11.03;;
5734;SDS011;2892;47.592;7.688;2024-01-15T11:45:11;16.53;;;9.47;;
5734;SDS011;2892;47.592;7.688;2024-01-15T11:50:26;26.23;;;10.27;;
5734;SDS011;2892;47.592;7.688;2024-01-15T11:52:58;19.37;;;10.47;;
5734;SDS011;2892;47.592;7.688;2024-01-15T11:55:41;23.10;;;8.90;;
5734;SDS011;2892;47.592;7.688;2024-01-15T11:58:09;24.07;;;10.10;;
5734;SDS011;2892;47.592;7.688;2024-01-15T12:00:39;24.87;;;11.30;;
5734;SDS011;2892;47.592;7.688;2024-01-15T12:03:06;21.20;;;10.80;;
5734;SDS011;2892;47.592;7.688;2024-01-15T12:05:31;26.73;;;10.43;;
5734;SDS011;2892;47.592;7.688;2024-01-15T12:07:57;22.30;;;11.60;;
5734;SDS011;2892;47.592;7.688;2024-01-15T12:10:22;20.40;;;11.30;;
5734;SDS011;2892;47.592;7.688;2024-01-15T12:15:37;22.47;;;9.33;;
5734;SDS011;2892;47.592;7.688;2024-01-15T12:18:03;20.83;;;11.70;;
5734;SDS011;2892;47.592;7.688;2024-01-15T12:20:29;19.97;;;11.40;;
5734;SDS011;2892;47.592;7.688;2024-01-15T12:22:55;25.30;;;11.37;;
5734;SDS011;2892;47.592;7.688;2024-01-15T12:25:21;31.07;;;12.30;;
5734;SDS011;2892;47.592;7.688;2024-01-15T12:27:48;26.93;;;11.73;;
5734;SDS011;2892;47.592;7.688;2024-01-15T12:30:14;26.53;;;11.90;;
5734;SDS011;2892;47.592;7.688;2024-01-15T12:32:40;24.30;;;11.50;;
5734;SDS011;2892;47.592;7.688;2024-01-15T12:35:06;27.57;;;12.10;;
5734;SDS011;2892;47.592;7.688;2024-01-15T12:37:31;26.83;;;11.40;;
5734;SDS011;2892;47.592;7.688;2024-01-15T12:39:58;23.47;;;11.40;;
5734;SDS011;2892;47.592;7.688;2024-01-15T12:42:24;29.77;;;13.07;;
5734;SDS011;2892;47.592;7.688;2024-01-15T12:44:49;23.40;;;11.70;;
5734;SDS011;2892;47.592;7.688;2024-01-15T12:47:15;23.13;;;11.67;;
5734;SDS011;2892;47.592;7.688;2024-01-15T12:49:40;22.43;;;11.97;;
5734;SDS011;2892;47.592;7.688;2024-01-15T12:52:08;25.40;;;11.27;;
5734;SDS011;2892;47.592;7.688;2024-01-15T12:54:34;28.30;;;13.80;;
5734;SDS011;2892;47.592;7.688;2024-01-15T12:57:00;21.23;;;10.90;;
5734;SDS011;2892;47.592;7.688;2024-01-15T12:59:25;26.40;;;12.33;;
5734;SDS011;2892;47.592;7.688;2024-01-15T13:01:51;26.87;;;11.70;;
5734;SDS011;2892;47.592;7.688;2024-01-15T13:04:24;15.70;;;8.93;;
5734;SDS011;2892;47.592;7.688;2024-01-15T13:06:50;20.97;;;11.77;;
5734;SDS011;2892;47.592;7.688;2024-01-15T13:09:16;26.10;;;12.37;;
5734;SDS011;2892;47.592;7.688;2024-01-15T13:11:42;21.30;;;10.97;;
5734;SDS011;2892;47.592;7.688;2024-01-15T13:14:09;17.67;;;9.83;;
5734;SDS011;2892;47.592;7.688;2024-01-15T13:16:34;27.73;;;10.90;;
5734;SDS011;2892;47.592;7.688;2024-01-15T13:19:00;25.30;;;11.67;;
5734;SDS011;2892;47.592;7.688;2024-01-15T13:21:25;29.57;;;11.30;;
5734;SDS011;2892;47.592;7.688;2024-01-15T13:23:50;21.57;;;11.27;;
5734;SDS011;2892;47.592;7.688;2024-01-15T13:26:16;23.53;;;11.33;;
5734;SDS011;2892;47.592;7.688;2024-01-15T13:28:41;22.53;;;10.33;;
5734;SDS011;2892;47.592;7.688;2024-01-15T13:31:07;19.90;;;10.20;;
5734;SDS011;2892;47.592;7.688;2024-01-15T13:33:32;22.60;;;10.17;;
5734;SDS011;2892;47.592;7.688;2024-01-15T13:35:58;19.70;;;9.87;;
5734;SDS011;2892;47.592;7.688;2024-01-15T13:38:23;16.00;;;9.23;;
5734;SDS011;2892;47.592;7.688;2024-01-15T13:40:49;19.33;;;9.23;;
5734;SDS011;2892;47.592;7.688;2024-01-15T13:43:14;21.10;;;8.90;;
5734;SDS011;2892;47.592;7.688;2024-01-15T13:45:41;22.17;;;9.17;;
5734;SDS011;2892;47.592;7.688;2024-01-15T13:48:07;23.50;;;9.20;;
5734;SDS011;2892;47.592;7.688;2024-01-15T13:50:32;20.27;;;10.07;;
5734;SDS011;2892;47.592;7.688;2024-01-15T13:52:58;21.33;;;10.47;;
5734;SDS011;2892;47.592;7.688;2024-01-15T13:55:23;21.83;;;10.40;;
5734;SDS011;2892;47.592;7.688;2024-01-15T13:57:49;25.53;;;9.60;;
5734;SDS011;2892;47.592;7.688;2024-01-15T14:00:14;23.33;;;10.30;;
5734;SDS011;2892;47.592;7.688;2024-01-15T14:02:40;18.70;;;8.30;;
5734;SDS011;2892;47.592;7.688;2024-01-15T14:05:05;20.60;;;8.87;;
5734;SDS011;2892;47.592;7.688;2024-01-15T14:07:31;20.23;;;9.50;;
5734;SDS011;2892;47.592;7.688;2024-01-15T14:09:56;15.87;;;9.57;;
5734;SDS011;2892;47.592;7.688;2024-01-15T14:12:22;17.77;;;9.50;;
5734;SDS011;2892;47.592;7.688;2024-01-15T14:14:47;23.03;;;9.27;;
5734;SDS011;2892;47.592;7.688;2024-01-15T14:17:13;13.67;;;7.90;;
5734;SDS011;2892;47.592;7.688;2024-01-15T14:19:38;20.40;;;9.93;;
5734;SDS011;2892;47.592;7.688;2024-01-15T14:22:04;17.07;;;9.17;;
5734;SDS011;2892;47.592;7.688;2024-01-15T14:24:29;18.30;;;8.60;;
5734;SDS011;2892;47.592;7.688;2024-01-15T14:26:55;24.40;;;8.70;;
5734;SDS011;2892;47.592;7.688;2024-01-15T14:29:20;19.40;;;7.60;;
5734;SDS011;2892;47.592;7.688;2024-01-15T14:31:46;22.07;;;9.37;;
5734;SDS011;2892;47.592;7.688;2024-01-15T14:34:11;19.50;;;9.40;;
5734;SDS011;2892;47.592;7.688;2024-01-15T14:36:37;22.33;;;8.63;;
5734;SDS011;2892;47.592;7.688;2024-01-15T14:39:02;24.67;;;9.23;;
5734;SDS011;2892;47.592;7.688;2024-01-15T14:41:28;15.30;;;7.27;;
5734;SDS011;2892;47.592;7.688;2024-01-15T14:43:54;15.17;;;8.60;;
5734;SDS011;2892;47.592;7.688;2024-01-15T14:46:20;13.60;;;6.50;;
5734;SDS011;2892;47.592;7.688;2024-01-15T14:48:45;15.63;;;8.77;;
5734;SDS011;2892;47.592;7.688;2024-01-15T14:51:11;17.73;;;8.40;;
5734;SDS011;2892;47.592;7.688;2024-01-15T14:53:36;16.70;;;7.57;;
5734;SDS011;2892;47.592;7.688;2024-01-15T14:56:02;16.77;;;7.93;;